sensor_id;sensor_type;location;lat;lon;timestamp;temperature;humidity
66710;DHT22;53624;0.000;0.000;2023-02-03T00:00:16;9.80;93.90
66710;DHT22;53624;0.000;0.000;2023-02-03T00:02:44;9.80;93.90
66710;DHT22;53624;0.000;0.000;2023-02-03T00:05:11;9.80;93.90
66710;DHT22;53624;0.000;0.000;2023-02-03T00:07:39;9.80;93.90
66710;DHT22;53624;0.000;0.000;2023-02-03T00:10:09;9.80;93.90
66710;DHT22;53624;0.000;0.000;2023-02-03T00:12:38;9.80;94.00
66710;DHT22;53624;0.000;0.000;2023-02-03T00:15:06;9.80;94.00
66710;DHT22;53624;0.000;0.000;2023-02-03T00:17:33;9.80;94.30
66710;DHT22;53624;0.000;0.000;2023-02-03T00:20:01;9.80;94.00
66710;DHT22;53624;0.000;0.000;2023-02-03T00:22:28;9.80;94.00
66710;DHT22;53624;0.000;0.000;2023-02-03T00:24:56;9.70;94.30
66710;DHT22;53624;0.000;0.000;2023-02-03T00:27:23;9.70;94.00
66710;DHT22;53624;0.000;0.000;2023-02-03T00:29:52;9.70;94.00
66710;DHT22;53624;0.000;0.000;2023-02-03T00:32:20;9.70;94.00
66710;DHT22;53624;0.000;0.000;2023-02-03T00:34:47;9.70;94.00
66710;DHT22;53624;0.000;0.000;2023-02-03T00:37:15;9.70;94.00
66710;DHT22;53624;0.000;0.000;2023-02-03T00:39:42;9.70;94.10
66710;DHT22;53624;0.000;0.000;2023-02-03T00:42:10;9.70;94.00
66710;DHT22;53624;0.000;0.000;2023-02-03T00:44:37;9.70;94.10
66710;DHT22;53624;0.000;0.000;2023-02-03T00:47:06;9.70;94.10
66710;DHT22;53624;0.000;0.000;2023-02-03T00:49:34;9.60;94.00
66710;DHT22;53624;0.000;0.000;2023-02-03T00:52:01;9.60;94.10
66710;DHT22;53624;0.000;0.000;2023-02-03T00:54:29;9.60;94.10
66710;DHT22;53624;0.000;0.000;2023-02-03T00:56:56;9.60;94.10
66710;DHT22;53624;0.000;0.000;2023-02-03T00:59:23;9.60;94.10
66710;DHT22;53624;0.000;0.000;2023-02-03T01:01:51;9.60;94.10
66710;DHT22;53624;0.000;0.000;2023-02-03T01:04:20;9.60;94.10
66710;DHT22;53624;0.000;0.000;2023-02-03T01:06:47;9.60;94.10
66710;DHT22;53624;0.000;0.000;2023-02-03T01:09:14;9.60;94.10
66710;DHT22;53624;0.000;0.000;2023-02-03T01:11:42;9.60;94.20
66710;DHT22;53624;0.000;0.000;2023-02-03T01:14:09;9.60;94.20
66710;DHT22;53624;0.000;0.000;2023-02-03T01:16:37;9.60;94.20
66710;DHT22;53624;0.000;0.000;2023-02-03T01:19:04;9.60;94.20
66710;DHT22;53624;0.000;0.000;2023-02-03T01:21:33;9.60;94.20
66710;DHT22;53624;0.000;0.000;2023-02-03T01:24:01;9.50;94.20
66710;DHT22;53624;0.000;0.000;2023-02-03T01:26:30;9.60;94.20
66710;DHT22;53624;0.000;0.000;2023-02-03T01:28:58;9.50;94.20
66710;DHT22;53624;0.000;0.000;2023-02-03T01:31:26;9.60;94.30
66710;DHT22;53624;0.000;0.000;2023-02-03T01:33:54;9.50;94.20
66710;DHT22;53624;0.000;0.000;2023-02-03T01:36:22;9.50;94.20
66710;DHT22;53624;0.000;0.000;2023-02-03T01:38:52;9.50;94.30
66710;DHT22;53624;0.000;0.000;2023-02-03T01:41:22;9.50;94.30
66710;DHT22;53624;0.000;0.000;2023-02-03T01:43:50;9.50;94.30
66710;DHT22;53624;0.000;0.000;2023-02-03T01:46:23;9.50;94.30
66710;DHT22;53624;0.000;0.000;2023-02-03T01:48:50;9.50;94.30
66710;DHT22;53624;0.000;0.000;2023-02-03T01:51:18;9.50;94.30
66710;DHT22;53624;0.000;0.000;2023-02-03T01:53:47;9.50;94.30
66710;DHT22;53624;0.000;0.000;2023-02-03T01:56:16;9.40;94.30
66710;DHT22;53624;0.000;0.000;2023-02-03T01:58:43;9.40;94.30
66710;DHT22;53624;0.000;0.000;2023-02-03T02:01:12;9.40;94.30
66710;DHT22;53624;0.000;0.000;2023-02-03T02:03:41;9.40;94.30
66710;DHT22;53624;0.000;0.000;2023-02-03T02:06:11;9.40;94.30
66710;DHT22;53624;0.000;0.000;2023-02-03T02:08:40;9.40;94.30
66710;DHT22;53624;0.000;0.000;2023-02-03T02:11:08;9.40;94.30
66710;DHT22;53624;0.000;0.000;2023-02-03T02:13:37;9.40;94.30
66710;DHT22;53624;0.000;0.000;2023-02-03T02:16:05;9.40;94.30
66710;DHT22;53624;0.000;0.000;2023-02-03T02:18:39;9.40;94.30
66710;DHT22;53624;0.000;0.000;2023-02-03T02:21:12;9.40;94.30
66710;DHT22;53624;0.000;0.000;2023-02-03T02:26:37;9.40;94.40
66710;DHT22;53624;0.000;0.000;2023-02-03T02:29:17;9.40;94.40
66710;DHT22;53624;0.000;0.000;2023-02-03T02:34:38;9.30;94.40
66710;DHT22;53624;0.000;0.000;2023-02-03T02:37:09;9.30;94.40
66710;DHT22;53624;0.000;0.000;2023-02-03T02:39:43;9.30;94.40
66710;DHT22;53624;0.000;0.000;2023-02-03T02:42:13;9.30;94.40
66710;DHT22;53624;0.000;0.000;2023-02-03T02:44:43;9.30;94.40
66710;DHT22;53624;0.000;0.000;2023-02-03T02:47:14;9.30;94.40
66710;DHT22;53624;0.000;0.000;2023-02-03T02:49:47;9.30;94.40
66710;DHT22;53624;0.000;0.000;2023-02-03T02:52:16;9.20;94.30
66710;DHT22;53624;0.000;0.000;2023-02-03T02:54:47;9.20;94.30
66710;DHT22;53624;0.000;0.000;2023-02-03T02:57:16;9.20;94.30
66710;DHT22;53624;0.000;0.000;2023-02-03T02:59:44;9.20;94.30
66710;DHT22;53624;0.000;0.000;2023-02-03T03:02:12;9.20;94.30
66710;DHT22;53624;0.000;0.000;2023-02-03T03:04:39;9.20;94.40
66710;DHT22;53624;0.000;0.000;2023-02-03T03:07:10;9.20;94.30
66710;DHT22;53624;0.000;0.000;2023-02-03T03:09:40;9.20;94.30
66710;DHT22;53624;0.000;0.000;2023-02-03T03:12:09;9.10;94.30
66710;DHT22;53624;0.000;0.000;2023-02-03T03:14:38;9.10;94.30
66710;DHT22;53624;0.000;0.000;2023-02-03T03:17:06;9.10;94.60
66710;DHT22;53624;0.000;0.000;2023-02-03T03:19:37;9.10;94.30
66710;DHT22;53624;0.000;0.000;2023-02-03T03:22:06;9.10;94.30
66710;DHT22;53624;0.000;0.000;2023-02-03T03:24:37;9.10;94.30
66710;DHT22;53624;0.000;0.000;2023-02-03T03:27:07;9.10;94.30
66710;DHT22;53624;0.000;0.000;2023-02-03T03:29:37;9.10;94.30
66710;DHT22;53624;0.000;0.000;2023-02-03T03:32:05;9.00;94.20
66710;DHT22;53624;0.000;0.000;2023-02-03T03:34:33;9.10;94.30
66710;DHT22;53624;0.000;0.000;2023-02-03T03:37:01;9.00;94.20
66710;DHT22;53624;0.000;0.000;2023-02-03T03:39:31;9.00;94.20
66710;DHT22;53624;0.000;0.000;2023-02-03T03:42:03;9.00;94.20
66710;DHT22;53624;0.000;0.000;2023-02-03T03:44:34;9.00;94.20
66710;DHT22;53624;0.000;0.000;2023-02-03T03:47:06;9.00;94.20
66710;DHT22;53624;0.000;0.000;2023-02-03T03:49:35;9.00;94.20
66710;DHT22;53624;0.000;0.000;2023-02-03T03:52:03;8.90;94.20
66710;DHT22;53624;0.000;0.000;2023-02-03T03:54:32;8.90;94.20
66710;DHT22;53624;0.000;0.000;2023-02-03T03:57:04;8.90;94.20
66710;DHT22;53624;0.000;0.000;2023-02-03T03:59:36;8.90;94.20
66710;DHT22;53624;0.000;0.000;2023-02-03T04:02:06;8.90;94.20
66710;DHT22;53624;0.000;0.000;2023-02-03T04:04:34;8.90;94.20
66710;DHT22;53624;0.000;0.000;2023-02-03T04:07:02;8.90;94.20
66710;DHT22;53624;0.000;0.000;2023-02-03T04:09:30;8.90;94.20
66710;DHT22;53624;0.000;0.000;2023-02-03T04:11:57;8.90;94.20
66710;DHT22;53624;0.000;0.000;2023-02-03T04:14:29;8.80;94.20
66710;DHT22;53624;0.000;0.000;2023-02-03T04:16:57;8.80;94.20
66710;DHT22;53624;0.000;0.000;2023-02-03T04:19:24;8.80;94.10
66710;DHT22;53624;0.000;0.000;2023-02-03T04:21:52;8.80;94.20
66710;DHT22;53624;0.000;0.000;2023-02-03T04:24:19;8.80;94.20
66710;DHT22;53624;0.000;0.000;2023-02-03T04:26:47;8.70;94.10
66710;DHT22;53624;0.000;0.000;2023-02-03T04:29:14;8.70;94.10
66710;DHT22;53624;0.000;0.000;2023-02-03T04:31:43;8.70;94.10
66710;DHT22;53624;0.000;0.000;2023-02-03T04:34:10;8.70;94.10
66710;DHT22;53624;0.000;0.000;2023-02-03T04:36:38;8.70;94.10
66710;DHT22;53624;0.000;0.000;2023-02-03T04:39:05;8.70;94.10
66710;DHT22;53624;0.000;0.000;2023-02-03T04:41:32;8.70;94.10
66710;DHT22;53624;0.000;0.000;2023-02-03T04:44:00;8.70;94.10
66710;DHT22;53624;0.000;0.000;2023-02-03T04:46:27;8.70;94.10
66710;DHT22;53624;0.000;0.000;2023-02-03T04:48:56;8.70;94.10
66710;DHT22;53624;0.000;0.000;2023-02-03T04:51:23;8.70;94.10
66710;DHT22;53624;0.000;0.000;2023-02-03T04:53:51;8.60;94.10
66710;DHT22;53624;0.000;0.000;2023-02-03T04:56:18;8.60;94.10
66710;DHT22;53624;0.000;0.000;2023-02-03T04:58:46;8.60;94.10
66710;DHT22;53624;0.000;0.000;2023-02-03T05:01:13;8.60;94.10
66710;DHT22;53624;0.000;0.000;2023-02-03T05:03:40;8.60;94.10
66710;DHT22;53624;0.000;0.000;2023-02-03T05:06:09;8.50;94.00
66710;DHT22;53624;0.000;0.000;2023-02-03T05:08:37;8.50;94.00
66710;DHT22;53624;0.000;0.000;2023-02-03T05:11:04;8.50;94.00
66710;DHT22;53624;0.000;0.000;2023-02-03T05:13:31;8.50;94.00
66710;DHT22;53624;0.000;0.000;2023-02-03T05:15:59;8.50;94.00
66710;DHT22;53624;0.000;0.000;2023-02-03T05:18:26;8.50;94.00
66710;DHT22;53624;0.000;0.000;2023-02-03T05:20:54;8.50;94.00
66710;DHT22;53624;0.000;0.000;2023-02-03T05:23:23;8.50;94.00
66710;DHT22;53624;0.000;0.000;2023-02-03T05:25:50;8.50;94.00
66710;DHT22;53624;0.000;0.000;2023-02-03T05:28:17;8.50;94.00
66710;DHT22;53624;0.000;0.000;2023-02-03T05:30:45;8.50;94.00
66710;DHT22;53624;0.000;0.000;2023-02-03T05:33:12;8.40;93.90
66710;DHT22;53624;0.000;0.000;2023-02-03T05:35:40;8.50;93.90
66710;DHT22;53624;0.000;0.000;2023-02-03T05:38:07;8.40;93.90
66710;DHT22;53624;0.000;0.000;2023-02-03T05:40:36;8.40;93.90
66710;DHT22;53624;0.000;0.000;2023-02-03T05:43:21;8.40;93.90
66710;DHT22;53624;0.000;0.000;2023-02-03T05:45:48;8.40;93.90
66710;DHT22;53624;0.000;0.000;2023-02-03T05:48:15;8.40;93.90
66710;DHT22;53624;0.000;0.000;2023-02-03T05:50:43;8.40;93.90
66710;DHT22;53624;0.000;0.000;2023-02-03T05:53:10;8.40;93.90
66710;DHT22;53624;0.000;0.000;2023-02-03T05:55:39;8.30;93.90
66710;DHT22;53624;0.000;0.000;2023-02-03T05:58:07;8.30;93.90
66710;DHT22;53624;0.000;0.000;2023-02-03T06:00:34;8.30;93.90
66710;DHT22;53624;0.000;0.000;2023-02-03T06:03:02;8.30;93.90
66710;DHT22;53624;0.000;0.000;2023-02-03T06:05:30;8.30;93.90
66710;DHT22;53624;0.000;0.000;2023-02-03T06:07:57;8.30;93.90
66710;DHT22;53624;0.000;0.000;2023-02-03T06:10:25;8.30;93.80
66710;DHT22;53624;0.000;0.000;2023-02-03T06:12:54;8.30;93.90
66710;DHT22;53624;0.000;0.000;2023-02-03T06:15:21;8.30;93.80
66710;DHT22;53624;0.000;0.000;2023-02-03T06:17:49;8.30;93.80
66710;DHT22;53624;0.000;0.000;2023-02-03T06:20:17;8.20;93.80
66710;DHT22;53624;0.000;0.000;2023-02-03T06:22:44;8.20;93.80
66710;DHT22;53624;0.000;0.000;2023-02-03T06:25:12;8.20;93.80
66710;DHT22;53624;0.000;0.000;2023-02-03T06:27:40;8.20;94.20
66710;DHT22;53624;0.000;0.000;2023-02-03T06:30:10;8.20;93.80
66710;DHT22;53624;0.000;0.000;2023-02-03T06:32:37;8.20;93.80
66710;DHT22;53624;0.000;0.000;2023-02-03T06:35:05;8.20;93.80
66710;DHT22;53624;0.000;0.000;2023-02-03T06:37:32;8.20;93.80
66710;DHT22;53624;0.000;0.000;2023-02-03T06:40:00;8.20;93.80
66710;DHT22;53624;0.000;0.000;2023-02-03T06:42:29;8.20;93.80
66710;DHT22;53624;0.000;0.000;2023-02-03T06:44:56;8.20;93.80
66710;DHT22;53624;0.000;0.000;2023-02-03T06:47:25;8.10;93.70
66710;DHT22;53624;0.000;0.000;2023-02-03T06:49:53;8.10;93.70
66710;DHT22;53624;0.000;0.000;2023-02-03T06:52:20;8.10;93.70
66710;DHT22;53624;0.000;0.000;2023-02-03T06:54:48;8.10;93.70
66710;DHT22;53624;0.000;0.000;2023-02-03T06:57:15;8.10;93.70
66710;DHT22;53624;0.000;0.000;2023-02-03T06:59:42;8.10;93.70
66710;DHT22;53624;0.000;0.000;2023-02-03T07:02:10;8.10;93.70
66710;DHT22;53624;0.000;0.000;2023-02-03T07:04:39;8.10;93.70
66710;DHT22;53624;0.000;0.000;2023-02-03T07:07:06;8.10;93.70
66710;DHT22;53624;0.000;0.000;2023-02-03T07:09:33;8.10;93.60
66710;DHT22;53624;0.000;0.000;2023-02-03T07:12:01;8.10;93.60
66710;DHT22;53624;0.000;0.000;2023-02-03T07:14:28;8.10;93.60
66710;DHT22;53624;0.000;0.000;2023-02-03T07:16:56;8.10;93.60
66710;DHT22;53624;0.000;0.000;2023-02-03T07:19:24;8.10;93.60
66710;DHT22;53624;0.000;0.000;2023-02-03T07:21:55;8.10;93.60
66710;DHT22;53624;0.000;0.000;2023-02-03T07:24:22;8.00;93.50
66710;DHT22;53624;0.000;0.000;2023-02-03T07:26:49;8.10;93.50
66710;DHT22;53624;0.000;0.000;2023-02-03T07:29:17;8.00;93.50
66710;DHT22;53624;0.000;0.000;2023-02-03T07:31:44;8.00;93.50
66710;DHT22;53624;0.000;0.000;2023-02-03T07:34:12;8.00;93.50
66710;DHT22;53624;0.000;0.000;2023-02-03T07:36:40;8.10;93.50
66710;DHT22;53624;0.000;0.000;2023-02-03T07:39:09;8.00;93.40
66710;DHT22;53624;0.000;0.000;2023-02-03T07:41:36;8.10;93.40
66710;DHT22;53624;0.000;0.000;2023-02-03T07:44:05;8.10;93.40
66710;DHT22;53624;0.000;0.000;2023-02-03T07:46:34;8.10;93.40
66710;DHT22;53624;0.000;0.000;2023-02-03T07:49:04;8.10;93.40
66710;DHT22;53624;0.000;0.000;2023-02-03T07:51:32;8.10;93.40
66710;DHT22;53624;0.000;0.000;2023-02-03T07:53:59;8.10;93.40
66710;DHT22;53624;0.000;0.000;2023-02-03T07:56:28;8.10;93.60
66710;DHT22;53624;0.000;0.000;2023-02-03T07:58:57;8.10;93.30
66710;DHT22;53624;0.000;0.000;2023-02-03T08:01:25;8.10;93.30
66710;DHT22;53624;0.000;0.000;2023-02-03T08:03:53;8.10;93.20
66710;DHT22;53624;0.000;0.000;2023-02-03T08:06:20;8.10;93.40
66710;DHT22;53624;0.000;0.000;2023-02-03T08:08:48;8.10;93.20
66710;DHT22;53624;0.000;0.000;2023-02-03T08:11:15;8.10;93.20
66710;DHT22;53624;0.000;0.000;2023-02-03T08:13:44;8.20;93.20
66710;DHT22;53624;0.000;0.000;2023-02-03T08:16:12;8.20;93.20
66710;DHT22;53624;0.000;0.000;2023-02-03T08:18:39;8.20;93.20
66710;DHT22;53624;0.000;0.000;2023-02-03T08:21:07;8.20;93.10
66710;DHT22;53624;0.000;0.000;2023-02-03T08:23:34;8.20;93.10
66710;DHT22;53624;0.000;0.000;2023-02-03T08:26:02;8.30;93.10
66710;DHT22;53624;0.000;0.000;2023-02-03T08:28:29;8.30;93.10
66710;DHT22;53624;0.000;0.000;2023-02-03T08:30:58;8.30;93.00
66710;DHT22;53624;0.000;0.000;2023-02-03T08:33:25;8.40;93.00
66710;DHT22;53624;0.000;0.000;2023-02-03T08:35:53;8.40;93.00
66710;DHT22;53624;0.000;0.000;2023-02-03T08:38:21;8.50;93.00
66710;DHT22;53624;0.000;0.000;2023-02-03T08:40:49;8.50;93.00
66710;DHT22;53624;0.000;0.000;2023-02-03T08:43:16;8.50;93.00
66710;DHT22;53624;0.000;0.000;2023-02-03T08:45:44;8.60;92.90
66710;DHT22;53624;0.000;0.000;2023-02-03T08:48:13;8.60;92.90
66710;DHT22;53624;0.000;0.000;2023-02-03T08:50:40;8.70;92.90
66710;DHT22;53624;0.000;0.000;2023-02-03T08:53:09;8.80;93.00
66710;DHT22;53624;0.000;0.000;2023-02-03T08:55:37;8.80;92.90
66710;DHT22;53624;0.000;0.000;2023-02-03T08:58:04;8.90;92.90
66710;DHT22;53624;0.000;0.000;2023-02-03T09:00:32;9.00;92.90
66710;DHT22;53624;0.000;0.000;2023-02-03T09:02:59;9.10;92.90
66710;DHT22;53624;0.000;0.000;2023-02-03T09:05:30;9.60;92.50
66710;DHT22;53624;0.000;0.000;2023-02-03T09:07:57;10.30;91.70
66710;DHT22;53624;0.000;0.000;2023-02-03T09:10:24;10.50;91.40
66710;DHT22;53624;0.000;0.000;2023-02-03T09:12:52;10.40;91.60
66710;DHT22;53624;0.000;0.000;2023-02-03T09:15:19;10.80;91.40
66710;DHT22;53624;0.000;0.000;2023-02-03T09:17:47;11.10;90.90
66710;DHT22;53624;0.000;0.000;2023-02-03T09:20:14;11.30;90.90
66710;DHT22;53624;0.000;0.000;2023-02-03T09:22:44;11.40;90.90
66710;DHT22;53624;0.000;0.000;2023-02-03T09:25:11;11.40;90.90
66710;DHT22;53624;0.000;0.000;2023-02-03T09:27:41;11.60;90.80
66710;DHT22;53624;0.000;0.000;2023-02-03T09:30:09;11.90;90.50
66710;DHT22;53624;0.000;0.000;2023-02-03T09:32:36;11.90;90.70
66710;DHT22;53624;0.000;0.000;2023-02-03T09:35:04;11.80;91.00
66710;DHT22;53624;0.000;0.000;2023-02-03T09:37:32;11.80;91.10
66710;DHT22;53624;0.000;0.000;2023-02-03T09:40:01;11.90;91.10
66710;DHT22;53624;0.000;0.000;2023-02-03T09:45:17;12.10;91.20
66710;DHT22;53624;0.000;0.000;2023-02-03T09:47:46;12.30;91.10
66710;DHT22;53624;0.000;0.000;2023-02-03T09:50:19;12.50;91.00
66710;DHT22;53624;0.000;0.000;2023-02-03T09:52:47;12.70;90.90
66710;DHT22;53624;0.000;0.000;2023-02-03T09:55:23;13.00;90.80
66710;DHT22;53624;0.000;0.000;2023-02-03T09:57:51;13.20;90.50
66710;DHT22;53624;0.000;0.000;2023-02-03T10:00:22;13.50;90.30
66710;DHT22;53624;0.000;0.000;2023-02-03T10:02:54;13.70;90.20
66710;DHT22;53624;0.000;0.000;2023-02-03T10:05:24;14.00;90.10
66710;DHT22;53624;0.000;0.000;2023-02-03T10:07:58;14.20;89.80
66710;DHT22;53624;0.000;0.000;2023-02-03T10:10:32;14.40;89.40
66710;DHT22;53624;0.000;0.000;2023-02-03T10:13:05;14.60;89.20
66710;DHT22;53624;0.000;0.000;2023-02-03T10:15:46;14.80;88.90
66710;DHT22;53624;0.000;0.000;2023-02-03T10:18:18;15.00;88.60
66710;DHT22;53624;0.000;0.000;2023-02-03T10:20:48;15.20;88.30
66710;DHT22;53624;0.000;0.000;2023-02-03T10:23:17;15.40;88.00
66710;DHT22;53624;0.000;0.000;2023-02-03T10:25:49;15.60;87.80
66710;DHT22;53624;0.000;0.000;2023-02-03T10:28:21;15.80;87.60
66710;DHT22;53624;0.000;0.000;2023-02-03T10:30:49;16.00;87.30
66710;DHT22;53624;0.000;0.000;2023-02-03T10:33:19;16.10;86.70
66710;DHT22;53624;0.000;0.000;2023-02-03T10:35:48;16.40;86.80
66710;DHT22;53624;0.000;0.000;2023-02-03T10:38:20;16.50;86.50
66710;DHT22;53624;0.000;0.000;2023-02-03T10:40:52;16.70;86.40
66710;DHT22;53624;0.000;0.000;2023-02-03T10:43:19;16.90;86.20
66710;DHT22;53624;0.000;0.000;2023-02-03T10:46:04;17.00;85.70
66710;DHT22;53624;0.000;0.000;2023-02-03T10:48:31;17.20;85.70
66710;DHT22;53624;0.000;0.000;2023-02-03T10:50:59;17.40;85.60
66710;DHT22;53624;0.000;0.000;2023-02-03T10:53:31;17.50;86.60
66710;DHT22;53624;0.000;0.000;2023-02-03T10:56:01;17.60;85.20
66710;DHT22;53624;0.000;0.000;2023-02-03T10:58:29;17.70;85.10
66710;DHT22;53624;0.000;0.000;2023-02-03T11:01:03;17.90;84.60
66710;DHT22;53624;0.000;0.000;2023-02-03T11:03:31;18.10;84.30
66710;DHT22;53624;0.000;0.000;2023-02-03T11:06:02;18.30;83.70
66710;DHT22;53624;0.000;0.000;2023-02-03T11:08:30;18.40;83.90
66710;DHT22;53624;0.000;0.000;2023-02-03T11:11:02;18.60;83.60
66710;DHT22;53624;0.000;0.000;2023-02-03T11:13:30;18.80;83.10
66710;DHT22;53624;0.000;0.000;2023-02-03T11:15:58;19.00;83.10
66710;DHT22;53624;0.000;0.000;2023-02-03T11:18:30;19.10;82.90
66710;DHT22;53624;0.000;0.000;2023-02-03T11:21:00;19.30;82.80
66710;DHT22;53624;0.000;0.000;2023-02-03T11:23:32;19.50;82.80
66710;DHT22;53624;0.000;0.000;2023-02-03T11:26:09;19.70;81.90
66710;DHT22;53624;0.000;0.000;2023-02-03T11:28:39;19.70;81.30
66710;DHT22;53624;0.000;0.000;2023-02-03T11:31:12;19.70;80.60
66710;DHT22;53624;0.000;0.000;2023-02-03T11:33:45;19.90;80.90
66710;DHT22;53624;0.000;0.000;2023-02-03T11:36:12;19.90;81.00
66710;DHT22;53624;0.000;0.000;2023-02-03T11:38:40;20.00;80.60
66710;DHT22;53624;0.000;0.000;2023-02-03T11:41:20;20.10;80.60
66710;DHT22;53624;0.000;0.000;2023-02-03T11:43:47;20.20;80.20
66710;DHT22;53624;0.000;0.000;2023-02-03T11:46:15;20.40;83.30
66710;DHT22;53624;0.000;0.000;2023-02-03T11:48:45;20.50;84.00
66710;DHT22;53624;0.000;0.000;2023-02-03T11:51:18;20.70;82.50
66710;DHT22;53624;0.000;0.000;2023-02-03T11:53:51;20.80;83.10
66710;DHT22;53624;0.000;0.000;2023-02-03T11:56:28;20.90;83.80
66710;DHT22;53624;0.000;0.000;2023-02-03T12:04:32;21.30;79.50
66710;DHT22;53624;0.000;0.000;2023-02-03T12:07:12;21.50;80.30
66710;DHT22;53624;0.000;0.000;2023-02-03T12:09:46;21.60;79.00
66710;DHT22;53624;0.000;0.000;2023-02-03T12:12:23;21.90;78.20
66710;DHT22;53624;0.000;0.000;2023-02-03T12:14:55;22.00;77.50
66710;DHT22;53624;0.000;0.000;2023-02-03T12:17:33;22.10;76.40
66710;DHT22;53624;0.000;0.000;2023-02-03T12:20:13;22.30;75.10
66710;DHT22;53624;0.000;0.000;2023-02-03T12:22:45;22.50;75.00
66710;DHT22;53624;0.000;0.000;2023-02-03T12:25:24;22.60;73.40
66710;DHT22;53624;0.000;0.000;2023-02-03T12:27:55;22.50;72.60
66710;DHT22;53624;0.000;0.000;2023-02-03T12:30:27;22.40;69.60
66710;DHT22;53624;0.000;0.000;2023-02-03T12:32:56;22.50;68.50
66710;DHT22;53624;0.000;0.000;2023-02-03T12:35:25;22.80;68.20
66710;DHT22;53624;0.000;0.000;2023-02-03T12:37:55;23.10;68.40
66710;DHT22;53624;0.000;0.000;2023-02-03T12:40:24;23.30;69.00
66710;DHT22;53624;0.000;0.000;2023-02-03T12:42:58;23.40;69.40
66710;DHT22;53624;0.000;0.000;2023-02-03T12:45:28;23.60;68.70
66710;DHT22;53624;0.000;0.000;2023-02-03T12:47:57;23.70;69.10
66710;DHT22;53624;0.000;0.000;2023-02-03T12:50:28;23.60;69.20
66710;DHT22;53624;0.000;0.000;2023-02-03T12:52:57;23.70;69.40
66710;DHT22;53624;0.000;0.000;2023-02-03T12:55:27;23.80;68.90
66710;DHT22;53624;0.000;0.000;2023-02-03T12:57:59;24.00;68.60
66710;DHT22;53624;0.000;0.000;2023-02-03T13:00:31;24.20;68.30
66710;DHT22;53624;0.000;0.000;2023-02-03T13:03:05;24.30;68.30
66710;DHT22;53624;0.000;0.000;2023-02-03T13:05:35;24.40;67.50
66710;DHT22;53624;0.000;0.000;2023-02-03T13:08:06;24.50;67.30
66710;DHT22;53624;0.000;0.000;2023-02-03T13:10:35;24.70;67.30
66710;DHT22;53624;0.000;0.000;2023-02-03T13:13:06;24.80;67.00
66710;DHT22;53624;0.000;0.000;2023-02-03T13:15:38;24.90;66.40
66710;DHT22;53624;0.000;0.000;2023-02-03T13:18:08;24.90;66.20
66710;DHT22;53624;0.000;0.000;2023-02-03T13:20:40;24.90;65.50
66710;DHT22;53624;0.000;0.000;2023-02-03T13:23:09;24.90;65.50
66710;DHT22;53624;0.000;0.000;2023-02-03T13:25:42;24.90;65.10
66710;DHT22;53624;0.000;0.000;2023-02-03T13:28:15;24.80;64.70
66710;DHT22;53624;0.000;0.000;2023-02-03T13:30:51;24.80;64.40
66710;DHT22;53624;0.000;0.000;2023-02-03T13:33:29;24.80;64.10
66710;DHT22;53624;0.000;0.000;2023-02-03T13:36:05;24.60;64.00
66710;DHT22;53624;0.000;0.000;2023-02-03T13:38:40;24.50;64.00
66710;DHT22;53624;0.000;0.000;2023-02-03T13:41:14;24.50;64.10
66710;DHT22;53624;0.000;0.000;2023-02-03T13:43:48;24.40;64.20
66710;DHT22;53624;0.000;0.000;2023-02-03T13:46:20;24.30;64.30
66710;DHT22;53624;0.000;0.000;2023-02-03T13:48:49;24.10;65.00
66710;DHT22;53624;0.000;0.000;2023-02-03T13:51:17;24.00;65.40
66710;DHT22;53624;0.000;0.000;2023-02-03T13:53:46;23.60;66.10
66710;DHT22;53624;0.000;0.000;2023-02-03T13:56:16;23.30;67.10
66710;DHT22;53624;0.000;0.000;2023-02-03T13:58:46;22.90;67.90
66710;DHT22;53624;0.000;0.000;2023-02-03T14:01:26;22.60;68.50
66710;DHT22;53624;0.000;0.000;2023-02-03T14:03:54;22.50;69.20
66710;DHT22;53624;0.000;0.000;2023-02-03T14:09:34;22.10;69.90
66710;DHT22;53624;0.000;0.000;2023-02-03T14:14:59;21.60;70.60
66710;DHT22;53624;0.000;0.000;2023-02-03T14:22:58;21.10;71.80
66710;DHT22;53624;0.000;0.000;2023-02-03T14:25:28;21.00;72.20
66710;DHT22;53624;0.000;0.000;2023-02-03T14:27:57;20.80;72.60
66710;DHT22;53624;0.000;0.000;2023-02-03T14:30:27;20.60;73.30
66710;DHT22;53624;0.000;0.000;2023-02-03T14:32:55;20.40;73.80
66710;DHT22;53624;0.000;0.000;2023-02-03T14:35:24;20.30;74.60
66710;DHT22;53624;0.000;0.000;2023-02-03T14:37:56;20.20;74.40
66710;DHT22;53624;0.000;0.000;2023-02-03T14:40:28;20.10;75.70
66710;DHT22;53624;0.000;0.000;2023-02-03T14:43:10;20.00;76.00
66710;DHT22;53624;0.000;0.000;2023-02-03T14:48:30;19.70;76.70
66710;DHT22;53624;0.000;0.000;2023-02-03T14:51:03;19.60;77.20
66710;DHT22;53624;0.000;0.000;2023-02-03T14:56:17;19.30;78.00
66710;DHT22;53624;0.000;0.000;2023-02-03T14:58:48;19.20;78.40
66710;DHT22;53624;0.000;0.000;2023-02-03T15:01:22;19.00;78.80
66710;DHT22;53624;0.000;0.000;2023-02-03T15:06:52;18.80;79.60
66710;DHT22;53624;0.000;0.000;2023-02-03T15:09:22;18.60;79.70
66710;DHT22;53624;0.000;0.000;2023-02-03T15:11:51;18.50;80.20
66710;DHT22;53624;0.000;0.000;2023-02-03T15:14:22;18.40;80.40
66710;DHT22;53624;0.000;0.000;2023-02-03T15:16:52;18.30;80.80
66710;DHT22;53624;0.000;0.000;2023-02-03T15:19:22;18.20;81.10
66710;DHT22;53624;0.000;0.000;2023-02-03T15:21:49;18.20;81.40
66710;DHT22;53624;0.000;0.000;2023-02-03T15:24:19;18.10;81.60
66710;DHT22;53624;0.000;0.000;2023-02-03T15:26:49;18.00;82.00
66710;DHT22;53624;0.000;0.000;2023-02-03T15:29:21;17.90;82.30
66710;DHT22;53624;0.000;0.000;2023-02-03T15:31:51;17.80;82.60
66710;DHT22;53624;0.000;0.000;2023-02-03T15:34:20;17.60;82.90
66710;DHT22;53624;0.000;0.000;2023-02-03T15:36:50;17.50;83.20
66710;DHT22;53624;0.000;0.000;2023-02-03T15:39:21;17.40;83.50
66710;DHT22;53624;0.000;0.000;2023-02-03T15:41:50;17.30;83.70
66710;DHT22;53624;0.000;0.000;2023-02-03T15:44:23;17.20;84.00
66710;DHT22;53624;0.000;0.000;2023-02-03T15:46:52;17.10;84.20
66710;DHT22;53624;0.000;0.000;2023-02-03T15:49:20;17.00;84.30
66710;DHT22;53624;0.000;0.000;2023-02-03T15:51:52;17.00;84.70
66710;DHT22;53624;0.000;0.000;2023-02-03T15:54:23;16.90;84.80
66710;DHT22;53624;0.000;0.000;2023-02-03T15:56:56;16.80;85.00
66710;DHT22;53624;0.000;0.000;2023-02-03T15:59:25;16.70;85.20
66710;DHT22;53624;0.000;0.000;2023-02-03T16:01:55;16.60;85.40
66710;DHT22;53624;0.000;0.000;2023-02-03T16:04:23;16.50;85.60
66710;DHT22;53624;0.000;0.000;2023-02-03T16:06:51;16.50;85.80
66710;DHT22;53624;0.000;0.000;2023-02-03T16:09:28;16.40;86.10
66710;DHT22;53624;0.000;0.000;2023-02-03T16:12:03;16.30;86.20
66710;DHT22;53624;0.000;0.000;2023-02-03T16:14:32;16.20;86.40
66710;DHT22;53624;0.000;0.000;2023-02-03T16:17:00;16.10;86.60
66710;DHT22;53624;0.000;0.000;2023-02-03T16:19:28;16.10;86.70
66710;DHT22;53624;0.000;0.000;2023-02-03T16:21:57;16.00;86.90
66710;DHT22;53624;0.000;0.000;2023-02-03T16:24:34;15.90;87.10
66710;DHT22;53624;0.000;0.000;2023-02-03T16:33:04;15.70;87.60
66710;DHT22;53624;0.000;0.000;2023-02-03T16:35:53;15.60;87.80
66710;DHT22;53624;0.000;0.000;2023-02-03T16:38:42;15.50;87.80
66710;DHT22;53624;0.000;0.000;2023-02-03T16:41:28;15.50;87.90
66710;DHT22;53624;0.000;0.000;2023-02-03T16:44:14;15.40;88.30
66710;DHT22;53624;0.000;0.000;2023-02-03T16:46:59;15.30;88.40
66710;DHT22;53624;0.000;0.000;2023-02-03T16:49:44;15.30;88.50